Cloverdale, Michigan
Current Conditions -  °F | °C
As of 5:53 AM on Sunday 23 Nov 2014 (Local Time) from KBTL Reporting Station
Overcast Overcast  
Wind Chill:   Ceiling: 1500
Heat Index:   Visibility: 10mi
Dew Point:   Wind: 15mph
Humidity: 83%   Direction: 190°S
Pressure: 29.87"   Gusts: NA
Location:  42.56°N, 85.43°W
Report Text: KBTL 231053Z 19013KT 10SM BKN015 OVC044 09/07 A2987 RMK AO2 RAE01 SLP120 P0000 T00940067 $
Loading
Personal Weather Stations






























Interactive Weather Map New forecast layout! Learn more

10-Day Weather Forecast

Advertisements
Track Severe Weather on mobile